Ramona, Oklahoma
Current Conditions -  °F | °C
As of 4:53 AM on Sunday 21 Dec 2014 (Local Time) from KBVO Reporting Station
Overcast Overcast  
Wind Chill: 38°   Ceiling: 3000
Heat Index: 42°   Visibility: 10mi
Dew Point: 37°   Wind: 6mph
Humidity: 82%   Direction: 170°S
Pressure: 30.09"   Gusts: NA
Location:  36.53°N, 95.92°W
Report Text: KBVO 211053Z AUTO 17005KT 10SM OVC030 06/03 A3009 RMK AO2 SLP188 T00560028
Loading
Personal Weather Stations






























Interactive Weather Map New forecast layout! Learn more

10-Day Weather Forecast

Advertisements
Track Severe Weather on mobile